<?xml version="1.0" encoding="UTF-8" standalone="no" ?>
<gpx xmlns="http://www.topografix.com/GPX/1/1" xmlns:xsi="http://www.w3.org/2001/XMLSchema-instance" xsi:schemaLocation="http://www.topografix.com/GPX/1/1 http://www.topografix.com/GPX/1/1/gpx.xsd" version="1.1" creator="VisuGPX - https://www.visugpx.com">
  <metadata>
    <name>Huguenots - De Laffrey à Vizille</name>
    <desc><![CDATA[Randonnée sur les pas des Huguenots - De Laffrey à Vizille]]></desc>
  </metadata>
  <trk>
    <name><![CDATA[14  laffrey-vizille-MNT]]></name>
    <trkseg>
      <trkpt lat="45.02267" lon="5.78361">
        <ele>929</ele>
        <time>2011-12-07T11:53:18Z</time>
      </trkpt>
      <trkpt lat="45.02303" lon="5.78426">
        <ele>934</ele>
        <time>2011-12-07T11:53:42Z</time>
      </trkpt>
      <trkpt lat="45.02322" lon="5.78453">
        <ele>934</ele>
        <time>2011-12-07T11:53:52Z</time>
      </trkpt>
      <trkpt lat="45.02364" lon="5.78458">
        <ele>934</ele>
        <time>2011-12-07T11:54:09Z</time>
      </trkpt>
      <trkpt lat="45.02409" lon="5.78468">
        <ele>934</ele>
        <time>2011-12-07T11:54:27Z</time>
      </trkpt>
      <trkpt lat="45.02424" lon="5.78483">
        <ele>934</ele>
        <time>2011-12-07T11:54:35Z</time>
      </trkpt>
      <trkpt lat="45.02433" lon="5.78518">
        <ele>937</ele>
        <time>2011-12-07T11:54:45Z</time>
      </trkpt>
      <trkpt lat="45.02457" lon="5.78556">
        <ele>938</ele>
        <time>2011-12-07T11:55:00Z</time>
      </trkpt>
      <trkpt lat="45.02512" lon="5.786">
        <ele>940</ele>
        <time>2011-12-07T11:55:25Z</time>
      </trkpt>
      <trkpt lat="45.02545" lon="5.78614">
        <ele>940</ele>
        <time>2011-12-07T11:55:38Z</time>
      </trkpt>
      <trkpt lat="45.02591" lon="5.78626">
        <ele>938</ele>
        <time>2011-12-07T11:55:57Z</time>
      </trkpt>
      <trkpt lat="45.02617" lon="5.78637">
        <ele>938</ele>
        <time>2011-12-07T11:56:08Z</time>
      </trkpt>
      <trkpt lat="45.02635" lon="5.78669">
        <ele>939</ele>
        <time>2011-12-07T11:56:20Z</time>
      </trkpt>
      <trkpt lat="45.02673" lon="5.78687">
        <ele>939</ele>
        <time>2011-12-07T11:56:36Z</time>
      </trkpt>
      <trkpt lat="45.0271" lon="5.78697">
        <ele>940</ele>
        <time>2011-12-07T11:56:51Z</time>
      </trkpt>
      <trkpt lat="45.02738" lon="5.78691">
        <ele>940</ele>
        <time>2011-12-07T11:57:02Z</time>
      </trkpt>
      <trkpt lat="45.02902" lon="5.7863">
        <ele>936</ele>
        <time>2011-12-07T11:58:10Z</time>
      </trkpt>
      <trkpt lat="45.02912" lon="5.78614">
        <ele>937</ele>
        <time>2011-12-07T11:58:16Z</time>
      </trkpt>
      <trkpt lat="45.0292" lon="5.78583">
        <ele>944</ele>
        <time>2011-12-07T11:58:25Z</time>
      </trkpt>
      <trkpt lat="45.02925" lon="5.78574">
        <ele>948</ele>
        <time>2011-12-07T11:58:29Z</time>
      </trkpt>
      <trkpt lat="45.02945" lon="5.78572">
        <ele>952</ele>
        <time>2011-12-07T11:58:37Z</time>
      </trkpt>
      <trkpt lat="45.02968" lon="5.7856">
        <ele>956</ele>
        <time>2011-12-07T11:58:47Z</time>
      </trkpt>
      <trkpt lat="45.02985" lon="5.7856">
        <ele>957</ele>
        <time>2011-12-07T11:58:54Z</time>
      </trkpt>
      <trkpt lat="45.03042" lon="5.78587">
        <ele>950</ele>
        <time>2011-12-07T11:59:18Z</time>
      </trkpt>
      <trkpt lat="45.0308" lon="5.78614">
        <ele>950</ele>
        <time>2011-12-07T11:59:35Z</time>
      </trkpt>
      <trkpt lat="45.03118" lon="5.7864">
        <ele>955</ele>
        <time>2011-12-07T11:59:51Z</time>
      </trkpt>
      <trkpt lat="45.03188" lon="5.78667">
        <ele>952</ele>
        <time>2011-12-07T12:00:21Z</time>
      </trkpt>
      <trkpt lat="45.03266" lon="5.78722">
        <ele>961</ele>
        <time>2011-12-07T12:00:55Z</time>
      </trkpt>
      <trkpt lat="45.03374" lon="5.78793">
        <ele>960</ele>
        <time>2011-12-07T12:01:43Z</time>
      </trkpt>
      <trkpt lat="45.034" lon="5.78829">
        <ele>960</ele>
        <time>2011-12-07T12:01:58Z</time>
      </trkpt>
      <trkpt lat="45.03411" lon="5.78863">
        <ele>951</ele>
        <time>2011-12-07T12:02:08Z</time>
      </trkpt>
      <trkpt lat="45.03414" lon="5.78911">
        <ele>946</ele>
        <time>2011-12-07T12:02:22Z</time>
      </trkpt>
      <trkpt lat="45.03421" lon="5.78962">
        <ele>949</ele>
        <time>2011-12-07T12:02:37Z</time>
      </trkpt>
      <trkpt lat="45.03438" lon="5.79007">
        <ele>945</ele>
        <time>2011-12-07T12:02:51Z</time>
      </trkpt>
      <trkpt lat="45.03462" lon="5.79028">
        <ele>944</ele>
        <time>2011-12-07T12:03:02Z</time>
      </trkpt>
      <trkpt lat="45.03501" lon="5.79061">
        <ele>945</ele>
        <time>2011-12-07T12:03:21Z</time>
      </trkpt>
      <trkpt lat="45.03542" lon="5.79103">
        <ele>942</ele>
        <time>2011-12-07T12:03:41Z</time>
      </trkpt>
      <trkpt lat="45.03566" lon="5.79167">
        <ele>940</ele>
        <time>2011-12-07T12:04:01Z</time>
      </trkpt>
      <trkpt lat="45.03564" lon="5.79195">
        <ele>939</ele>
        <time>2011-12-07T12:04:09Z</time>
      </trkpt>
      <trkpt lat="45.03536" lon="5.79284">
        <ele>936</ele>
        <time>2011-12-07T12:04:37Z</time>
      </trkpt>
      <trkpt lat="45.03548" lon="5.79323">
        <ele>937</ele>
        <time>2011-12-07T12:04:49Z</time>
      </trkpt>
      <trkpt lat="45.03569" lon="5.79344">
        <ele>938</ele>
        <time>2011-12-07T12:04:59Z</time>
      </trkpt>
      <trkpt lat="45.03589" lon="5.79362">
        <ele>935</ele>
        <time>2011-12-07T12:05:09Z</time>
      </trkpt>
      <trkpt lat="45.03606" lon="5.79389">
        <ele>934</ele>
        <time>2011-12-07T12:05:19Z</time>
      </trkpt>
      <trkpt lat="45.0361" lon="5.79499">
        <ele>932</ele>
        <time>2011-12-07T12:05:50Z</time>
      </trkpt>
      <trkpt lat="45.0363" lon="5.79536">
        <ele>932</ele>
        <time>2011-12-07T12:06:03Z</time>
      </trkpt>
      <trkpt lat="45.03656" lon="5.79569">
        <ele>930</ele>
        <time>2011-12-07T12:06:17Z</time>
      </trkpt>
      <trkpt lat="45.03713" lon="5.7961">
        <ele>923</ele>
        <time>2011-12-07T12:06:43Z</time>
      </trkpt>
      <trkpt lat="45.03767" lon="5.79661">
        <ele>906</ele>
        <time>2011-12-07T12:07:09Z</time>
      </trkpt>
      <trkpt lat="45.03799" lon="5.79711">
        <ele>901</ele>
        <time>2011-12-07T12:07:28Z</time>
      </trkpt>
      <trkpt lat="45.0384" lon="5.79789">
        <ele>878</ele>
        <time>2011-12-07T12:07:55Z</time>
      </trkpt>
      <trkpt lat="45.03868" lon="5.79848">
        <ele>881</ele>
        <time>2011-12-07T12:08:15Z</time>
      </trkpt>
      <trkpt lat="45.03884" lon="5.7987">
        <ele>876</ele>
        <time>2011-12-07T12:08:24Z</time>
      </trkpt>
      <trkpt lat="45.03899" lon="5.7988">
        <ele>872</ele>
        <time>2011-12-07T12:08:31Z</time>
      </trkpt>
      <trkpt lat="45.03909" lon="5.79875">
        <ele>870</ele>
        <time>2011-12-07T12:08:35Z</time>
      </trkpt>
      <trkpt lat="45.03915" lon="5.79865">
        <ele>868</ele>
        <time>2011-12-07T12:08:39Z</time>
      </trkpt>
      <trkpt lat="45.03928" lon="5.79751">
        <ele>833</ele>
        <time>2011-12-07T12:09:12Z</time>
      </trkpt>
      <trkpt lat="45.03938" lon="5.79701">
        <ele>821</ele>
        <time>2011-12-07T12:09:26Z</time>
      </trkpt>
      <trkpt lat="45.03953" lon="5.79678">
        <ele>818</ele>
        <time>2011-12-07T12:09:35Z</time>
      </trkpt>
      <trkpt lat="45.03966" lon="5.79655">
        <ele>815</ele>
        <time>2011-12-07T12:09:43Z</time>
      </trkpt>
      <trkpt lat="45.03998" lon="5.79638">
        <ele>810</ele>
        <time>2011-12-07T12:09:57Z</time>
      </trkpt>
      <trkpt lat="45.04003" lon="5.7968">
        <ele>787</ele>
        <time>2011-12-07T12:10:09Z</time>
      </trkpt>
      <trkpt lat="45.04026" lon="5.79712">
        <ele>779</ele>
        <time>2011-12-07T12:10:22Z</time>
      </trkpt>
      <trkpt lat="45.04075" lon="5.79772">
        <ele>766</ele>
        <time>2011-12-07T12:10:48Z</time>
      </trkpt>
      <trkpt lat="45.04093" lon="5.79813">
        <ele>737</ele>
        <time>2011-12-07T12:11:02Z</time>
      </trkpt>
      <trkpt lat="45.04098" lon="5.79836">
        <ele>738</ele>
        <time>2011-12-07T12:11:08Z</time>
      </trkpt>
      <trkpt lat="45.04109" lon="5.79855">
        <ele>729</ele>
        <time>2011-12-07T12:11:16Z</time>
      </trkpt>
      <trkpt lat="45.04116" lon="5.79858">
        <ele>726</ele>
        <time>2011-12-07T12:11:18Z</time>
      </trkpt>
      <trkpt lat="45.04133" lon="5.79838">
        <ele>719</ele>
        <time>2011-12-07T12:11:27Z</time>
      </trkpt>
      <trkpt lat="45.04141" lon="5.79795">
        <ele>721</ele>
        <time>2011-12-07T12:11:40Z</time>
      </trkpt>
      <trkpt lat="45.04151" lon="5.79728">
        <ele>720</ele>
        <time>2011-12-07T12:11:59Z</time>
      </trkpt>
      <trkpt lat="45.04158" lon="5.7971">
        <ele>721</ele>
        <time>2011-12-07T12:12:05Z</time>
      </trkpt>
      <trkpt lat="45.04168" lon="5.79706">
        <ele>684</ele>
        <time>2011-12-07T12:12:09Z</time>
      </trkpt>
      <trkpt lat="45.0418" lon="5.79723">
        <ele>683</ele>
      </trkpt>
      <trkpt lat="45.04177" lon="5.79773">
        <ele>685</ele>
      </trkpt>
      <trkpt lat="45.04173" lon="5.79784">
        <ele>684</ele>
      </trkpt>
      <trkpt lat="45.04177" lon="5.798">
        <ele>682</ele>
      </trkpt>
      <trkpt lat="45.04186" lon="5.79787">
        <ele>680</ele>
      </trkpt>
      <trkpt lat="45.04193" lon="5.79767">
        <ele>681</ele>
      </trkpt>
      <trkpt lat="45.04201" lon="5.79743">
        <ele>677</ele>
      </trkpt>
      <trkpt lat="45.04207" lon="5.79712">
        <ele>674</ele>
        <time>2011-12-07T12:13:25Z</time>
      </trkpt>
      <trkpt lat="45.04194" lon="5.79675">
        <ele>681</ele>
        <time>2011-12-07T12:13:36Z</time>
      </trkpt>
      <trkpt lat="45.04195" lon="5.79633">
        <ele>678</ele>
        <time>2011-12-07T12:13:48Z</time>
      </trkpt>
      <trkpt lat="45.04194" lon="5.79584">
        <ele>682</ele>
        <time>2011-12-07T12:14:02Z</time>
      </trkpt>
      <trkpt lat="45.04207" lon="5.79536">
        <ele>675</ele>
        <time>2011-12-07T12:14:17Z</time>
      </trkpt>
      <trkpt lat="45.04212" lon="5.795">
        <ele>672</ele>
        <time>2011-12-07T12:14:27Z</time>
      </trkpt>
      <trkpt lat="45.0423" lon="5.79407">
        <ele>667</ele>
        <time>2011-12-07T12:14:55Z</time>
      </trkpt>
      <trkpt lat="45.04234" lon="5.79399">
        <ele>667</ele>
        <time>2011-12-07T12:14:57Z</time>
      </trkpt>
      <trkpt lat="45.04242" lon="5.79379">
        <ele>669</ele>
        <time>2011-12-07T12:15:04Z</time>
      </trkpt>
      <trkpt lat="45.04244" lon="5.7935">
        <ele>668</ele>
        <time>2011-12-07T12:15:12Z</time>
      </trkpt>
      <trkpt lat="45.04236" lon="5.79336">
        <ele>667</ele>
        <time>2011-12-07T12:15:17Z</time>
      </trkpt>
      <trkpt lat="45.04234" lon="5.79321">
        <ele>674</ele>
        <time>2011-12-07T12:15:21Z</time>
      </trkpt>
      <trkpt lat="45.04256" lon="5.79281">
        <ele>648</ele>
        <time>2011-12-07T12:15:36Z</time>
      </trkpt>
      <trkpt lat="45.04269" lon="5.79234">
        <ele>650</ele>
        <time>2011-12-07T12:15:50Z</time>
      </trkpt>
      <trkpt lat="45.04266" lon="5.79165">
        <ele>655</ele>
        <time>2011-12-07T12:16:10Z</time>
      </trkpt>
      <trkpt lat="45.04257" lon="5.79114">
        <ele>651</ele>
        <time>2011-12-07T12:16:24Z</time>
      </trkpt>
      <trkpt lat="45.04256" lon="5.79086">
        <ele>664</ele>
        <time>2011-12-07T12:16:32Z</time>
      </trkpt>
      <trkpt lat="45.04264" lon="5.79063">
        <ele>655</ele>
        <time>2011-12-07T12:16:40Z</time>
      </trkpt>
      <trkpt lat="45.04282" lon="5.79008">
        <ele>651</ele>
        <time>2011-12-07T12:16:57Z</time>
      </trkpt>
      <trkpt lat="45.04285" lon="5.78974">
        <ele>652</ele>
        <time>2011-12-07T12:17:06Z</time>
      </trkpt>
      <trkpt lat="45.0428" lon="5.78926">
        <ele>656</ele>
        <time>2011-12-07T12:17:20Z</time>
      </trkpt>
      <trkpt lat="45.04275" lon="5.78899">
        <ele>657</ele>
        <time>2011-12-07T12:17:28Z</time>
      </trkpt>
      <trkpt lat="45.04284" lon="5.78863">
        <ele>650</ele>
        <time>2011-12-07T12:17:39Z</time>
      </trkpt>
      <trkpt lat="45.04292" lon="5.78843">
        <ele>648</ele>
        <time>2011-12-07T12:17:45Z</time>
      </trkpt>
      <trkpt lat="45.04308" lon="5.78827">
        <ele>639</ele>
        <time>2011-12-07T12:17:53Z</time>
      </trkpt>
      <trkpt lat="45.0432" lon="5.78814">
        <ele>637</ele>
        <time>2011-12-07T12:17:59Z</time>
      </trkpt>
      <trkpt lat="45.04337" lon="5.78781">
        <ele>618</ele>
        <time>2011-12-07T12:18:11Z</time>
      </trkpt>
      <trkpt lat="45.04353" lon="5.78746">
        <ele>621</ele>
        <time>2011-12-07T12:18:23Z</time>
      </trkpt>
      <trkpt lat="45.04362" lon="5.78701">
        <ele>618</ele>
        <time>2011-12-07T12:18:36Z</time>
      </trkpt>
      <trkpt lat="45.04355" lon="5.78645">
        <ele>615</ele>
        <time>2011-12-07T12:18:52Z</time>
      </trkpt>
      <trkpt lat="45.04356" lon="5.78605">
        <ele>613</ele>
        <time>2011-12-07T12:19:03Z</time>
      </trkpt>
      <trkpt lat="45.04349" lon="5.78578">
        <ele>611</ele>
        <time>2011-12-07T12:19:11Z</time>
      </trkpt>
      <trkpt lat="45.04351" lon="5.78556">
        <ele>607</ele>
        <time>2011-12-07T12:19:18Z</time>
      </trkpt>
      <trkpt lat="45.04372" lon="5.78529">
        <ele>603</ele>
        <time>2011-12-07T12:19:29Z</time>
      </trkpt>
      <trkpt lat="45.04379" lon="5.78496">
        <ele>596</ele>
        <time>2011-12-07T12:19:39Z</time>
      </trkpt>
      <trkpt lat="45.04409" lon="5.78487">
        <ele>591</ele>
        <time>2011-12-07T12:19:51Z</time>
      </trkpt>
      <trkpt lat="45.04435" lon="5.7847">
        <ele>578</ele>
        <time>2011-12-07T12:20:02Z</time>
      </trkpt>
      <trkpt lat="45.04457" lon="5.78471">
        <ele>575</ele>
        <time>2011-12-07T12:20:11Z</time>
      </trkpt>
      <trkpt lat="45.04465" lon="5.78465">
        <ele>573</ele>
        <time>2011-12-07T12:20:15Z</time>
      </trkpt>
      <trkpt lat="45.04468" lon="5.78456">
        <ele>573</ele>
        <time>2011-12-07T12:20:18Z</time>
      </trkpt>
      <trkpt lat="45.04466" lon="5.78445">
        <ele>573</ele>
        <time>2011-12-07T12:20:21Z</time>
      </trkpt>
      <trkpt lat="45.04438" lon="5.78382">
        <ele>571</ele>
        <time>2011-12-07T12:20:42Z</time>
      </trkpt>
      <trkpt lat="45.04445" lon="5.78356">
        <ele>569</ele>
        <time>2011-12-07T12:20:50Z</time>
      </trkpt>
      <trkpt lat="45.04469" lon="5.78354">
        <ele>566</ele>
        <time>2011-12-07T12:20:59Z</time>
      </trkpt>
      <trkpt lat="45.0448" lon="5.78358">
        <ele>565</ele>
        <time>2011-12-07T12:21:04Z</time>
      </trkpt>
      <trkpt lat="45.04512" lon="5.78388">
        <ele>548</ele>
        <time>2011-12-07T12:21:19Z</time>
      </trkpt>
      <trkpt lat="45.04532" lon="5.78387">
        <ele>543</ele>
        <time>2011-12-07T12:21:27Z</time>
      </trkpt>
      <trkpt lat="45.04539" lon="5.78382">
        <ele>542</ele>
        <time>2011-12-07T12:21:31Z</time>
      </trkpt>
      <trkpt lat="45.04552" lon="5.78348">
        <ele>538</ele>
        <time>2011-12-07T12:21:41Z</time>
      </trkpt>
      <trkpt lat="45.04556" lon="5.78309">
        <ele>534</ele>
        <time>2011-12-07T12:21:53Z</time>
      </trkpt>
      <trkpt lat="45.0456" lon="5.7827">
        <ele>531</ele>
        <time>2011-12-07T12:22:04Z</time>
      </trkpt>
      <trkpt lat="45.04567" lon="5.78264">
        <ele>528</ele>
        <time>2011-12-07T12:22:07Z</time>
      </trkpt>
      <trkpt lat="45.04576" lon="5.78272">
        <ele>528</ele>
        <time>2011-12-07T12:22:11Z</time>
      </trkpt>
      <trkpt lat="45.04589" lon="5.78305">
        <ele>506</ele>
        <time>2011-12-07T12:22:22Z</time>
      </trkpt>
      <trkpt lat="45.04596" lon="5.78311">
        <ele>506</ele>
        <time>2011-12-07T12:22:25Z</time>
      </trkpt>
      <trkpt lat="45.04606" lon="5.7831">
        <ele>502</ele>
        <time>2011-12-07T12:22:29Z</time>
      </trkpt>
      <trkpt lat="45.04615" lon="5.78283">
        <ele>498</ele>
        <time>2011-12-07T12:22:38Z</time>
      </trkpt>
      <trkpt lat="45.04618" lon="5.78243">
        <ele>491</ele>
        <time>2011-12-07T12:22:49Z</time>
      </trkpt>
      <trkpt lat="45.04609" lon="5.78208">
        <ele>490</ele>
        <time>2011-12-07T12:23:00Z</time>
      </trkpt>
      <trkpt lat="45.04599" lon="5.78193">
        <ele>491</ele>
        <time>2011-12-07T12:23:05Z</time>
      </trkpt>
      <trkpt lat="45.04592" lon="5.78119">
        <ele>477</ele>
        <time>2011-12-07T12:23:27Z</time>
      </trkpt>
      <trkpt lat="45.04574" lon="5.78051">
        <ele>490</ele>
        <time>2011-12-07T12:23:47Z</time>
      </trkpt>
      <trkpt lat="45.04534" lon="5.77972">
        <ele>485</ele>
        <time>2011-12-07T12:24:15Z</time>
      </trkpt>
      <trkpt lat="45.04532" lon="5.7789">
        <ele>471</ele>
        <time>2011-12-07T12:24:38Z</time>
      </trkpt>
      <trkpt lat="45.04523" lon="5.77852">
        <ele>469</ele>
        <time>2011-12-07T12:24:49Z</time>
      </trkpt>
      <trkpt lat="45.04508" lon="5.77765">
        <ele>460</ele>
        <time>2011-12-07T12:25:14Z</time>
      </trkpt>
      <trkpt lat="45.04514" lon="5.77513">
        <ele>432</ele>
        <time>2011-12-07T12:26:26Z</time>
      </trkpt>
      <trkpt lat="45.04516" lon="5.77494">
        <ele>433</ele>
        <time>2011-12-07T12:26:31Z</time>
      </trkpt>
      <trkpt lat="45.04535" lon="5.77441">
        <ele>427</ele>
        <time>2011-12-07T12:26:48Z</time>
      </trkpt>
      <trkpt lat="45.04543" lon="5.77425">
        <ele>425</ele>
        <time>2011-12-07T12:26:54Z</time>
      </trkpt>
      <trkpt lat="45.0457" lon="5.77397">
        <ele>430</ele>
        <time>2011-12-07T12:27:07Z</time>
      </trkpt>
      <trkpt lat="45.04628" lon="5.77343">
        <ele>417</ele>
        <time>2011-12-07T12:27:35Z</time>
      </trkpt>
      <trkpt lat="45.04676" lon="5.77296">
        <ele>409</ele>
        <time>2011-12-07T12:27:58Z</time>
      </trkpt>
      <trkpt lat="45.04682" lon="5.7728">
        <ele>411</ele>
        <time>2011-12-07T12:28:03Z</time>
      </trkpt>
      <trkpt lat="45.04694" lon="5.77173">
        <ele>418</ele>
        <time>2011-12-07T12:28:34Z</time>
      </trkpt>
      <trkpt lat="45.04709" lon="5.7712">
        <ele>417</ele>
        <time>2011-12-07T12:28:50Z</time>
      </trkpt>
      <trkpt lat="45.04729" lon="5.77063">
        <ele>420</ele>
        <time>2011-12-07T12:29:08Z</time>
      </trkpt>
      <trkpt lat="45.04781" lon="5.76983">
        <ele>413</ele>
        <time>2011-12-07T12:29:39Z</time>
      </trkpt>
      <trkpt lat="45.04856" lon="5.76901">
        <ele>408</ele>
        <time>2011-12-07T12:30:17Z</time>
      </trkpt>
      <trkpt lat="45.04921" lon="5.7682">
        <ele>400</ele>
        <time>2011-12-07T12:30:51Z</time>
      </trkpt>
      <trkpt lat="45.04924" lon="5.76801">
        <ele>398</ele>
        <time>2011-12-07T12:30:57Z</time>
      </trkpt>
      <trkpt lat="45.04922" lon="5.76782">
        <ele>397</ele>
        <time>2011-12-07T12:31:02Z</time>
      </trkpt>
      <trkpt lat="45.04865" lon="5.76738">
        <ele>402</ele>
        <time>2011-12-07T12:31:28Z</time>
      </trkpt>
      <trkpt lat="45.0485" lon="5.76723">
        <ele>403</ele>
        <time>2011-12-07T12:31:36Z</time>
      </trkpt>
      <trkpt lat="45.04827" lon="5.76686">
        <ele>410</ele>
        <time>2011-12-07T12:31:50Z</time>
      </trkpt>
      <trkpt lat="45.04804" lon="5.76633">
        <ele>408</ele>
        <time>2011-12-07T12:32:07Z</time>
      </trkpt>
      <trkpt lat="45.04802" lon="5.76618">
        <ele>408</ele>
        <time>2011-12-07T12:32:12Z</time>
      </trkpt>
      <trkpt lat="45.04797" lon="5.76549">
        <ele>409</ele>
        <time>2011-12-07T12:32:31Z</time>
      </trkpt>
      <trkpt lat="45.04796" lon="5.76519">
        <ele>409</ele>
        <time>2011-12-07T12:32:40Z</time>
      </trkpt>
      <trkpt lat="45.04805" lon="5.76499">
        <ele>414</ele>
        <time>2011-12-07T12:32:46Z</time>
      </trkpt>
      <trkpt lat="45.04826" lon="5.7648">
        <ele>411</ele>
        <time>2011-12-07T12:32:56Z</time>
      </trkpt>
      <trkpt lat="45.04865" lon="5.76465">
        <ele>394</ele>
        <time>2011-12-07T12:33:12Z</time>
      </trkpt>
      <trkpt lat="45.04877" lon="5.76459">
        <ele>392</ele>
        <time>2011-12-07T12:33:18Z</time>
      </trkpt>
      <trkpt lat="45.04892" lon="5.76433">
        <ele>391</ele>
        <time>2011-12-07T12:33:27Z</time>
      </trkpt>
      <trkpt lat="45.0492" lon="5.76377">
        <ele>383</ele>
        <time>2011-12-07T12:33:47Z</time>
      </trkpt>
      <trkpt lat="45.04974" lon="5.76306">
        <ele>390</ele>
        <time>2011-12-07T12:34:16Z</time>
      </trkpt>
      <trkpt lat="45.05034" lon="5.7623">
        <ele>381</ele>
        <time>2011-12-07T12:34:48Z</time>
      </trkpt>
      <trkpt lat="45.05058" lon="5.76205">
        <ele>380</ele>
        <time>2011-12-07T12:35:00Z</time>
      </trkpt>
      <trkpt lat="45.05077" lon="5.76194">
        <ele>379</ele>
        <time>2011-12-07T12:35:08Z</time>
      </trkpt>
      <trkpt lat="45.05092" lon="5.76176">
        <ele>373</ele>
        <time>2011-12-07T12:35:16Z</time>
      </trkpt>
      <trkpt lat="45.0511" lon="5.76153">
        <ele>380</ele>
        <time>2011-12-07T12:35:26Z</time>
      </trkpt>
      <trkpt lat="45.05131" lon="5.76138">
        <ele>381</ele>
        <time>2011-12-07T12:35:35Z</time>
      </trkpt>
      <trkpt lat="45.05172" lon="5.76115">
        <ele>380</ele>
        <time>2011-12-07T12:35:53Z</time>
      </trkpt>
      <trkpt lat="45.05212" lon="5.76094">
        <ele>380</ele>
        <time>2011-12-07T12:36:10Z</time>
      </trkpt>
      <trkpt lat="45.05232" lon="5.76079">
        <ele>387</ele>
        <time>2011-12-07T12:36:19Z</time>
      </trkpt>
      <trkpt lat="45.05235" lon="5.76069">
        <ele>388</ele>
        <time>2011-12-07T12:36:22Z</time>
      </trkpt>
      <trkpt lat="45.05225" lon="5.7603">
        <ele>393</ele>
        <time>2011-12-07T12:36:34Z</time>
      </trkpt>
      <trkpt lat="45.05215" lon="5.76003">
        <ele>395</ele>
        <time>2011-12-07T12:36:43Z</time>
      </trkpt>
      <trkpt lat="45.0521" lon="5.75973">
        <ele>404</ele>
        <time>2011-12-07T12:36:51Z</time>
      </trkpt>
      <trkpt lat="45.05209" lon="5.75946">
        <ele>406</ele>
        <time>2011-12-07T12:36:59Z</time>
      </trkpt>
      <trkpt lat="45.0521" lon="5.75926">
        <ele>407</ele>
        <time>2011-12-07T12:37:05Z</time>
      </trkpt>
      <trkpt lat="45.05213" lon="5.75908">
        <ele>415</ele>
        <time>2011-12-07T12:37:10Z</time>
      </trkpt>
      <trkpt lat="45.05249" lon="5.75906">
        <ele>410</ele>
        <time>2011-12-07T12:37:24Z</time>
      </trkpt>
      <trkpt lat="45.05286" lon="5.759">
        <ele>410</ele>
        <time>2011-12-07T12:37:39Z</time>
      </trkpt>
      <trkpt lat="45.0531" lon="5.75901">
        <ele>408</ele>
        <time>2011-12-07T12:37:49Z</time>
      </trkpt>
      <trkpt lat="45.05335" lon="5.75899">
        <ele>402</ele>
        <time>2011-12-07T12:37:59Z</time>
      </trkpt>
      <trkpt lat="45.05356" lon="5.75892">
        <ele>403</ele>
        <time>2011-12-07T12:38:08Z</time>
      </trkpt>
      <trkpt lat="45.05407" lon="5.75864">
        <ele>404</ele>
        <time>2011-12-07T12:38:29Z</time>
      </trkpt>
      <trkpt lat="45.05435" lon="5.75846">
        <ele>402</ele>
        <time>2011-12-07T12:38:42Z</time>
      </trkpt>
      <trkpt lat="45.05501" lon="5.75829">
        <ele>403</ele>
        <time>2011-12-07T12:39:09Z</time>
      </trkpt>
      <trkpt lat="45.05524" lon="5.75808">
        <ele>404</ele>
        <time>2011-12-07T12:39:20Z</time>
      </trkpt>
      <trkpt lat="45.05544" lon="5.75785">
        <ele>404</ele>
        <time>2011-12-07T12:39:30Z</time>
      </trkpt>
      <trkpt lat="45.05565" lon="5.75763">
        <ele>404</ele>
        <time>2011-12-07T12:39:40Z</time>
      </trkpt>
      <trkpt lat="45.05608" lon="5.75731">
        <ele>408</ele>
        <time>2011-12-07T12:40:00Z</time>
      </trkpt>
      <trkpt lat="45.05628" lon="5.7572">
        <ele>409</ele>
        <time>2011-12-07T12:40:09Z</time>
      </trkpt>
      <trkpt lat="45.05652" lon="5.75711">
        <ele>409</ele>
        <time>2011-12-07T12:40:18Z</time>
      </trkpt>
      <trkpt lat="45.0567" lon="5.75708">
        <ele>401</ele>
        <time>2011-12-07T12:40:26Z</time>
      </trkpt>
      <trkpt lat="45.05685" lon="5.75712">
        <ele>400</ele>
        <time>2011-12-07T12:40:32Z</time>
      </trkpt>
      <trkpt lat="45.05699" lon="5.75719">
        <ele>398</ele>
        <time>2011-12-07T12:40:38Z</time>
      </trkpt>
      <trkpt lat="45.05708" lon="5.75718">
        <ele>397</ele>
        <time>2011-12-07T12:40:42Z</time>
      </trkpt>
      <trkpt lat="45.05719" lon="5.75712">
        <ele>397</ele>
        <time>2011-12-07T12:40:46Z</time>
      </trkpt>
      <trkpt lat="45.0573" lon="5.75703">
        <ele>398</ele>
        <time>2011-12-07T12:40:51Z</time>
      </trkpt>
      <trkpt lat="45.05744" lon="5.75688">
        <ele>400</ele>
        <time>2011-12-07T12:40:58Z</time>
      </trkpt>
      <trkpt lat="45.0576" lon="5.75669">
        <ele>397</ele>
        <time>2011-12-07T12:41:07Z</time>
      </trkpt>
      <trkpt lat="45.05776" lon="5.75655">
        <ele>405</ele>
        <time>2011-12-07T12:41:14Z</time>
      </trkpt>
      <trkpt lat="45.05789" lon="5.75644">
        <ele>405</ele>
        <time>2011-12-07T12:41:20Z</time>
      </trkpt>
      <trkpt lat="45.05814" lon="5.75637">
        <ele>403</ele>
        <time>2011-12-07T12:41:31Z</time>
      </trkpt>
      <trkpt lat="45.05835" lon="5.75633">
        <ele>392</ele>
        <time>2011-12-07T12:41:39Z</time>
      </trkpt>
      <trkpt lat="45.05853" lon="5.75624">
        <ele>393</ele>
        <time>2011-12-07T12:41:47Z</time>
      </trkpt>
      <trkpt lat="45.05884" lon="5.75605">
        <ele>392</ele>
        <time>2011-12-07T12:42:00Z</time>
      </trkpt>
      <trkpt lat="45.05904" lon="5.75589">
        <ele>392</ele>
        <time>2011-12-07T12:42:10Z</time>
      </trkpt>
      <trkpt lat="45.05921" lon="5.75572">
        <ele>392</ele>
        <time>2011-12-07T12:42:18Z</time>
      </trkpt>
      <trkpt lat="45.05954" lon="5.75552">
        <ele>391</ele>
        <time>2011-12-07T12:42:32Z</time>
      </trkpt>
      <trkpt lat="45.06004" lon="5.75527">
        <ele>382</ele>
        <time>2011-12-07T12:42:53Z</time>
      </trkpt>
      <trkpt lat="45.06002" lon="5.75511">
        <ele>386</ele>
        <time>2011-12-07T12:42:58Z</time>
      </trkpt>
      <trkpt lat="45.06029" lon="5.7549">
        <ele>396</ele>
        <time>2011-12-07T12:43:10Z</time>
      </trkpt>
      <trkpt lat="45.06039" lon="5.7548">
        <ele>397</ele>
        <time>2011-12-07T12:43:15Z</time>
      </trkpt>
      <trkpt lat="45.06068" lon="5.75465">
        <ele>397</ele>
        <time>2011-12-07T12:43:27Z</time>
      </trkpt>
      <trkpt lat="45.06091" lon="5.75457">
        <ele>394</ele>
        <time>2011-12-07T12:43:37Z</time>
      </trkpt>
      <trkpt lat="45.06117" lon="5.7545">
        <ele>395</ele>
        <time>2011-12-07T12:43:47Z</time>
      </trkpt>
      <trkpt lat="45.06159" lon="5.75449">
        <ele>394</ele>
        <time>2011-12-07T12:44:04Z</time>
      </trkpt>
      <trkpt lat="45.06197" lon="5.75455">
        <ele>390</ele>
        <time>2011-12-07T12:44:20Z</time>
      </trkpt>
      <trkpt lat="45.06212" lon="5.75453">
        <ele>390</ele>
        <time>2011-12-07T12:44:25Z</time>
      </trkpt>
      <trkpt lat="45.06236" lon="5.75447">
        <ele>390</ele>
        <time>2011-12-07T12:44:36Z</time>
      </trkpt>
      <trkpt lat="45.063" lon="5.75441">
        <ele>388</ele>
        <time>2011-12-07T12:45:01Z</time>
      </trkpt>
      <trkpt lat="45.06322" lon="5.75445">
        <ele>388</ele>
        <time>2011-12-07T12:45:10Z</time>
      </trkpt>
      <trkpt lat="45.06367" lon="5.75458">
        <ele>385</ele>
        <time>2011-12-07T12:45:28Z</time>
      </trkpt>
      <trkpt lat="45.06387" lon="5.75459">
        <ele>384</ele>
        <time>2011-12-07T12:45:36Z</time>
      </trkpt>
      <trkpt lat="45.06424" lon="5.75449">
        <ele>385</ele>
        <time>2011-12-07T12:45:52Z</time>
      </trkpt>
      <trkpt lat="45.06475" lon="5.75432">
        <ele>388</ele>
        <time>2011-12-07T12:46:12Z</time>
      </trkpt>
      <trkpt lat="45.0651" lon="5.75423">
        <ele>394</ele>
        <time>2011-12-07T12:46:26Z</time>
      </trkpt>
      <trkpt lat="45.06527" lon="5.75424">
        <ele>393</ele>
        <time>2011-12-07T12:46:33Z</time>
      </trkpt>
      <trkpt lat="45.06563" lon="5.75436">
        <ele>395</ele>
        <time>2011-12-07T12:46:48Z</time>
      </trkpt>
      <trkpt lat="45.06592" lon="5.75434">
        <ele>404</ele>
        <time>2011-12-07T12:47:00Z</time>
      </trkpt>
      <trkpt lat="45.06608" lon="5.75436">
        <ele>404</ele>
        <time>2011-12-07T12:47:06Z</time>
      </trkpt>
      <trkpt lat="45.06634" lon="5.75451">
        <ele>404</ele>
        <time>2011-12-07T12:47:17Z</time>
      </trkpt>
      <trkpt lat="45.06648" lon="5.75459">
        <ele>404</ele>
        <time>2011-12-07T12:47:24Z</time>
      </trkpt>
      <trkpt lat="45.06682" lon="5.75487">
        <ele>406</ele>
        <time>2011-12-07T12:47:39Z</time>
      </trkpt>
      <trkpt lat="45.06757" lon="5.75528">
        <ele>397</ele>
        <time>2011-12-07T12:48:11Z</time>
      </trkpt>
      <trkpt lat="45.06806" lon="5.7555">
        <ele>395</ele>
        <time>2011-12-07T12:48:32Z</time>
      </trkpt>
      <trkpt lat="45.06828" lon="5.75562">
        <ele>391</ele>
        <time>2011-12-07T12:48:42Z</time>
      </trkpt>
      <trkpt lat="45.0686" lon="5.75584">
        <ele>380</ele>
        <time>2011-12-07T12:48:56Z</time>
      </trkpt>
      <trkpt lat="45.06886" lon="5.75609">
        <ele>380</ele>
        <time>2011-12-07T12:49:08Z</time>
      </trkpt>
      <trkpt lat="45.06924" lon="5.75647">
        <ele>384</ele>
        <time>2011-12-07T12:49:27Z</time>
      </trkpt>
      <trkpt lat="45.06952" lon="5.75677">
        <ele>367</ele>
        <time>2011-12-07T12:49:41Z</time>
      </trkpt>
      <trkpt lat="45.0698" lon="5.75725">
        <ele>363</ele>
        <time>2011-12-07T12:49:59Z</time>
      </trkpt>
      <trkpt lat="45.06993" lon="5.75743">
        <ele>361</ele>
        <time>2011-12-07T12:50:06Z</time>
      </trkpt>
      <trkpt lat="45.07001" lon="5.75752">
        <ele>359</ele>
        <time>2011-12-07T12:50:10Z</time>
      </trkpt>
      <trkpt lat="45.07002" lon="5.75761">
        <ele>358</ele>
        <time>2011-12-07T12:50:13Z</time>
      </trkpt>
      <trkpt lat="45.06997" lon="5.75781">
        <ele>349</ele>
        <time>2011-12-07T12:50:19Z</time>
      </trkpt>
      <trkpt lat="45.0699" lon="5.75801">
        <ele>347</ele>
        <time>2011-12-07T12:50:25Z</time>
      </trkpt>
      <trkpt lat="45.06999" lon="5.75804">
        <ele>348</ele>
        <time>2011-12-07T12:50:29Z</time>
      </trkpt>
      <trkpt lat="45.07015" lon="5.75819">
        <ele>354</ele>
        <time>2011-12-07T12:50:36Z</time>
      </trkpt>
      <trkpt lat="45.07035" lon="5.75842">
        <ele>345</ele>
        <time>2011-12-07T12:50:47Z</time>
      </trkpt>
      <trkpt lat="45.07055" lon="5.75864">
        <ele>343</ele>
        <time>2011-12-07T12:50:57Z</time>
      </trkpt>
      <trkpt lat="45.07063" lon="5.75879">
        <ele>342</ele>
        <time>2011-12-07T12:51:02Z</time>
      </trkpt>
      <trkpt lat="45.07084" lon="5.75914">
        <ele>338</ele>
        <time>2011-12-07T12:51:15Z</time>
      </trkpt>
      <trkpt lat="45.07131" lon="5.75962">
        <ele>322</ele>
        <time>2011-12-07T12:51:38Z</time>
      </trkpt>
      <trkpt lat="45.07209" lon="5.75971">
        <ele>325</ele>
        <time>2011-12-07T12:52:09Z</time>
      </trkpt>
      <trkpt lat="45.0726" lon="5.75991">
        <ele>330</ele>
        <time>2011-12-07T12:52:31Z</time>
      </trkpt>
      <trkpt lat="45.07302" lon="5.76028">
        <ele>319</ele>
        <time>2011-12-07T12:52:50Z</time>
      </trkpt>
      <trkpt lat="45.07332" lon="5.76067">
        <ele>311</ele>
        <time>2011-12-07T12:53:07Z</time>
      </trkpt>
      <trkpt lat="45.07375" lon="5.7612">
        <ele>311</ele>
        <time>2011-12-07T12:53:30Z</time>
      </trkpt>
      <trkpt lat="45.07402" lon="5.76156">
        <ele>309</ele>
        <time>2011-12-07T12:53:44Z</time>
      </trkpt>
      <trkpt lat="45.07409" lon="5.76175">
        <ele>301</ele>
        <time>2011-12-07T12:53:50Z</time>
      </trkpt>
      <trkpt lat="45.07333" lon="5.76121">
        <ele>295</ele>
        <time>2011-12-07T12:54:24Z</time>
      </trkpt>
      <trkpt lat="45.07322" lon="5.76119">
        <ele>295</ele>
        <time>2011-12-07T12:54:29Z</time>
      </trkpt>
      <trkpt lat="45.07315" lon="5.76113">
        <ele>295</ele>
        <time>2011-12-07T12:54:32Z</time>
      </trkpt>
      <trkpt lat="45.07308" lon="5.76104">
        <ele>296</ele>
        <time>2011-12-07T12:54:36Z</time>
      </trkpt>
      <trkpt lat="45.0729" lon="5.76096">
        <ele>294</ele>
        <time>2011-12-07T12:54:43Z</time>
      </trkpt>
      <trkpt lat="45.07268" lon="5.76096">
        <ele>292</ele>
        <time>2011-12-07T12:54:52Z</time>
      </trkpt>
      <trkpt lat="45.0726" lon="5.76104">
        <ele>291</ele>
        <time>2011-12-07T12:54:56Z</time>
      </trkpt>
      <trkpt lat="45.07257" lon="5.76158">
        <ele>288</ele>
        <time>2011-12-07T12:55:11Z</time>
      </trkpt>
      <trkpt lat="45.07262" lon="5.76173">
        <ele>287</ele>
        <time>2011-12-07T12:55:16Z</time>
      </trkpt>
      <trkpt lat="45.07274" lon="5.76185">
        <ele>287</ele>
        <time>2011-12-07T12:55:22Z</time>
      </trkpt>
      <trkpt lat="45.07265" lon="5.7624">
        <ele>289</ele>
        <time>2011-12-07T12:55:38Z</time>
      </trkpt>
      <trkpt lat="45.0727" lon="5.76254">
        <ele>288</ele>
        <time>2011-12-07T12:55:43Z</time>
      </trkpt>
      <trkpt lat="45.07335" lon="5.7629">
        <ele>286</ele>
        <time>2011-12-07T12:56:10Z</time>
      </trkpt>
      <trkpt lat="45.07413" lon="5.76329">
        <ele>286</ele>
        <time>2011-12-07T12:56:44Z</time>
      </trkpt>
      <trkpt lat="45.07482" lon="5.76364">
        <ele>285</ele>
        <time>2011-12-07T12:57:13Z</time>
      </trkpt>
      <trkpt lat="45.07508" lon="5.76379">
        <ele>285</ele>
        <time>2011-12-07T12:57:24Z</time>
      </trkpt>
      <trkpt lat="45.07531" lon="5.7639">
        <ele>285</ele>
        <time>2011-12-07T12:57:34Z</time>
      </trkpt>
      <trkpt lat="45.07561" lon="5.76417">
        <ele>282</ele>
        <time>2011-12-07T12:57:48Z</time>
      </trkpt>
      <trkpt lat="45.07588" lon="5.76446">
        <ele>283</ele>
        <time>2011-12-07T12:58:02Z</time>
      </trkpt>
      <trkpt lat="45.07609" lon="5.76457">
        <ele>283</ele>
        <time>2011-12-07T12:58:11Z</time>
      </trkpt>
      <trkpt lat="45.07668" lon="5.76478">
        <ele>284</ele>
        <time>2011-12-07T12:58:35Z</time>
      </trkpt>
      <trkpt lat="45.07681" lon="5.76488">
        <ele>284</ele>
        <time>2011-12-07T12:58:41Z</time>
      </trkpt>
      <trkpt lat="45.07691" lon="5.76487">
        <ele>285</ele>
        <time>2011-12-07T12:58:45Z</time>
      </trkpt>
      <trkpt lat="45.07719" lon="5.76495">
        <ele>285</ele>
        <time>2011-12-07T12:58:56Z</time>
      </trkpt>
      <trkpt lat="45.07779" lon="5.76518">
        <ele>280</ele>
        <time>2011-12-07T12:59:21Z</time>
      </trkpt>
      <trkpt lat="45.07824" lon="5.76532">
        <ele>280</ele>
        <time>2011-12-07T12:59:40Z</time>
      </trkpt>
      <trkpt lat="45.07865" lon="5.76541">
        <ele>278</ele>
        <time>2011-12-07T12:59:56Z</time>
      </trkpt>
      <trkpt lat="45.07887" lon="5.7654">
        <ele>278</ele>
        <time>2011-12-07T13:00:05Z</time>
      </trkpt>
      <trkpt lat="45.07923" lon="5.76531">
        <ele>278</ele>
        <time>2011-12-07T13:00:20Z</time>
      </trkpt>
      <trkpt lat="45.07924" lon="5.76523">
        <ele>278</ele>
        <time>2011-12-07T13:00:22Z</time>
      </trkpt>
      <trkpt lat="45.0789" lon="5.76425">
        <ele>285</ele>
        <time>2011-12-07T13:00:53Z</time>
      </trkpt>
      <trkpt lat="45.07882" lon="5.7641">
        <ele>300</ele>
        <time>2011-12-07T13:00:58Z</time>
      </trkpt>
      <trkpt lat="45.07876" lon="5.76405">
        <ele>301</ele>
        <time>2011-12-07T13:01:01Z</time>
      </trkpt>
      <trkpt lat="45.07866" lon="5.76408">
        <ele>302</ele>
        <time>2011-12-07T13:01:05Z</time>
      </trkpt>
      <trkpt lat="45.0784" lon="5.7642">
        <ele>293</ele>
        <time>2011-12-07T13:01:16Z</time>
      </trkpt>
      <trkpt lat="45.07824" lon="5.76424">
        <ele>294</ele>
        <time>2011-12-07T13:01:23Z</time>
      </trkpt>
      <trkpt lat="45.07812" lon="5.76434">
        <ele>292</ele>
        <time>2011-12-07T13:01:28Z</time>
      </trkpt>
      <trkpt lat="45.078" lon="5.76436">
        <ele>291</ele>
        <time>2011-12-07T13:01:33Z</time>
      </trkpt>
      <trkpt lat="45.07757" lon="5.76422">
        <ele>298</ele>
        <time>2011-12-07T13:01:51Z</time>
      </trkpt>
      <trkpt lat="45.07732" lon="5.76408">
        <ele>309</ele>
        <time>2011-12-07T13:02:01Z</time>
      </trkpt>
      <trkpt lat="45.07723" lon="5.76409">
        <ele>310</ele>
        <time>2011-12-07T13:02:05Z</time>
      </trkpt>
      <trkpt lat="45.07708" lon="5.76475">
        <ele>286</ele>
        <time>2011-12-07T13:02:24Z</time>
      </trkpt>
      <trkpt lat="45.07688" lon="5.76565">
        <ele>283</ele>
        <time>2011-12-07T13:02:51Z</time>
      </trkpt>
      <trkpt lat="45.07653" lon="5.76721">
        <ele>282</ele>
        <time>2011-12-07T13:03:37Z</time>
      </trkpt>
      <trkpt lat="45.07609" lon="5.76902">
        <ele>280</ele>
        <time>2011-12-07T13:04:31Z</time>
      </trkpt>
      <trkpt lat="45.07568" lon="5.77083">
        <ele>283</ele>
        <time>2011-12-07T13:05:25Z</time>
      </trkpt>
      <trkpt lat="45.07549" lon="5.77173">
        <ele>284</ele>
        <time>2011-12-07T13:05:52Z</time>
      </trkpt>
      <trkpt lat="45.07547" lon="5.77194">
        <ele>284</ele>
        <time>2011-12-07T13:05:58Z</time>
      </trkpt>
      <trkpt lat="45.07564" lon="5.77239">
        <ele>286</ele>
        <time>2011-12-07T13:06:12Z</time>
      </trkpt>
      <trkpt lat="45.07575" lon="5.77248">
        <ele>286</ele>
        <time>2011-12-07T13:06:17Z</time>
      </trkpt>
    </trkseg>
  </trk>
</gpx>